Marshfield, Indiana
Current Conditions -  °F | °C
As of 6:55 PM on Sunday 21 Dec 2014 (Local Time) from KDNV Reporting Station
Clear Clear  
Wind Chill: 28°   Ceiling: Unl
Heat Index: 33°   Visibility: 10mi
Dew Point: 29°   Wind: 5mph
Humidity: 87%   Direction: 120°ESE
Pressure: 30.07"   Gusts: NA
Location:  40.3333°N, 87.2831°W
Report Text: KDNV 212355Z AUTO 12004KT 10SM CLR 00/M02 A3007 RMK AO2 T00031017 10045 20003
Loading
Personal Weather Stations






























Interactive Weather Map New forecast layout! Learn more

10-Day Weather Forecast

Advertisements
Track Severe Weather on mobile